sensor_id;sensor_type;location;lat;lon;timestamp;temperature;humidity
2623;DHT22;1321;48.690;9.022;2023-06-14T00:02:19;18.70;10.70
2623;DHT22;1321;48.690;9.022;2023-06-14T00:04:47;18.60;10.90
2623;DHT22;1321;48.690;9.022;2023-06-14T00:07:22;18.50;10.10
2623;DHT22;1321;48.690;9.022;2023-06-14T00:10:01;18.60;10.20
2623;DHT22;1321;48.690;9.022;2023-06-14T00:12:29;18.60;10.20
2623;DHT22;1321;48.690;9.022;2023-06-14T00:14:57;18.50;10.40
2623;DHT22;1321;48.690;9.022;2023-06-14T00:17:28;18.50;10.70
2623;DHT22;1321;48.690;9.022;2023-06-14T00:19:58;18.40;11.50
2623;DHT22;1321;48.690;9.022;2023-06-14T00:22:28;18.40;10.80
2623;DHT22;1321;48.690;9.022;2023-06-14T00:24:57;18.30;10.50
2623;DHT22;1321;48.690;9.022;2023-06-14T00:27:34;18.30;10.90
2623;DHT22;1321;48.690;9.022;2023-06-14T00:30:02;18.40;11.00
2623;DHT22;1321;48.690;9.022;2023-06-14T00:32:30;18.30;10.90
2623;DHT22;1321;48.690;9.022;2023-06-14T00:34:58;18.20;11.20
2623;DHT22;1321;48.690;9.022;2023-06-14T00:37:28;18.20;10.10
2623;DHT22;1321;48.690;9.022;2023-06-14T00:39:56;18.20;10.40
2623;DHT22;1321;48.690;9.022;2023-06-14T00:42:24;18.20;10.40
2623;DHT22;1321;48.690;9.022;2023-06-14T00:44:53;18.20;9.90
2623;DHT22;1321;48.690;9.022;2023-06-14T00:47:22;18.20;11.30
2623;DHT22;1321;48.690;9.022;2023-06-14T00:49:51;18.20;11.70
2623;DHT22;1321;48.690;9.022;2023-06-14T00:52:19;18.20;11.30
2623;DHT22;1321;48.690;9.022;2023-06-14T00:54:49;18.10;11.10
2623;DHT22;1321;48.690;9.022;2023-06-14T00:57:17;18.20;12.60
2623;DHT22;1321;48.690;9.022;2023-06-14T00:59:47;18.10;12.10
2623;DHT22;1321;48.690;9.022;2023-06-14T01:02:17;18.00;11.40
2623;DHT22;1321;48.690;9.022;2023-06-14T01:04:47;17.90;11.00
2623;DHT22;1321;48.690;9.022;2023-06-14T01:07:23;17.80;10.60
2623;DHT22;1321;48.690;9.022;2023-06-14T01:10:08;17.80;10.60
2623;DHT22;1321;48.690;9.022;2023-06-14T01:12:50;17.70;10.20
2623;DHT22;1321;48.690;9.022;2023-06-14T01:15:21;17.80;10.00
2623;DHT22;1321;48.690;9.022;2023-06-14T01:17:50;17.70;10.00
2623;DHT22;1321;48.690;9.022;2023-06-14T01:20:22;17.70;11.10
2623;DHT22;1321;48.690;9.022;2023-06-14T01:22:58;17.70;10.60
2623;DHT22;1321;48.690;9.022;2023-06-14T01:25:26;17.70;10.50
2623;DHT22;1321;48.690;9.022;2023-06-14T01:27:58;17.70;10.40
2623;DHT22;1321;48.690;9.022;2023-06-14T01:30:29;17.60;10.60
2623;DHT22;1321;48.690;9.022;2023-06-14T01:33:00;17.60;11.00
2623;DHT22;1321;48.690;9.022;2023-06-14T01:35:29;17.50;10.90
2623;DHT22;1321;48.690;9.022;2023-06-14T01:37:59;17.50;11.40
2623;DHT22;1321;48.690;9.022;2023-06-14T01:40:28;17.50;10.60
2623;DHT22;1321;48.690;9.022;2023-06-14T01:42:57;17.40;9.60
2623;DHT22;1321;48.690;9.022;2023-06-14T01:45:26;17.40;9.80
2623;DHT22;1321;48.690;9.022;2023-06-14T01:47:54;17.30;9.70
2623;DHT22;1321;48.690;9.022;2023-06-14T01:50:23;17.30;10.90
2623;DHT22;1321;48.690;9.022;2023-06-14T01:52:51;17.40;11.20
2623;DHT22;1321;48.690;9.022;2023-06-14T01:55:20;17.30;11.20
2623;DHT22;1321;48.690;9.022;2023-06-14T01:57:48;17.20;9.70
2623;DHT22;1321;48.690;9.022;2023-06-14T02:00:17;17.10;9.20
2623;DHT22;1321;48.690;9.022;2023-06-14T02:02:45;17.00;8.90
2623;DHT22;1321;48.690;9.022;2023-06-14T02:05:13;17.00;20.10
2623;DHT22;1321;48.690;9.022;2023-06-14T02:07:42;17.00;9.40
2623;DHT22;1321;48.690;9.022;2023-06-14T02:10:10;17.10;11.00
2623;DHT22;1321;48.690;9.022;2023-06-14T02:12:40;17.00;10.30
2623;DHT22;1321;48.690;9.022;2023-06-14T02:15:09;17.00;10.20
2623;DHT22;1321;48.690;9.022;2023-06-14T02:17:44;17.00;10.50
2623;DHT22;1321;48.690;9.022;2023-06-14T02:20:14;16.90;10.10
2623;DHT22;1321;48.690;9.022;2023-06-14T02:22:42;16.90;9.40
2623;DHT22;1321;48.690;9.022;2023-06-14T02:25:10;16.80;10.10
2623;DHT22;1321;48.690;9.022;2023-06-14T02:27:40;16.80;10.60
2623;DHT22;1321;48.690;9.022;2023-06-14T02:30:09;16.90;10.80
2623;DHT22;1321;48.690;9.022;2023-06-14T02:32:37;16.80;9.90
2623;DHT22;1321;48.690;9.022;2023-06-14T02:35:08;16.80;10.90
2623;DHT22;1321;48.690;9.022;2023-06-14T02:37:36;16.70;10.70
2623;DHT22;1321;48.690;9.022;2023-06-14T02:40:05;16.70;11.60
2623;DHT22;1321;48.690;9.022;2023-06-14T02:42:35;16.80;19.40
2623;DHT22;1321;48.690;9.022;2023-06-14T02:45:06;16.80;12.60
2623;DHT22;1321;48.690;9.022;2023-06-14T02:47:35;16.70;12.30
2623;DHT22;1321;48.690;9.022;2023-06-14T02:50:03;16.70;12.50
2623;DHT22;1321;48.690;9.022;2023-06-14T02:52:31;16.80;13.00
2623;DHT22;1321;48.690;9.022;2023-06-14T02:55:00;16.70;13.70
2623;DHT22;1321;48.690;9.022;2023-06-14T02:57:28;16.70;13.50
2623;DHT22;1321;48.690;9.022;2023-06-14T02:59:56;16.60;13.90
2623;DHT22;1321;48.690;9.022;2023-06-14T03:02:25;16.60;14.40
2623;DHT22;1321;48.690;9.022;2023-06-14T03:04:53;16.60;14.80
2623;DHT22;1321;48.690;9.022;2023-06-14T03:07:22;16.60;15.40
2623;DHT22;1321;48.690;9.022;2023-06-14T03:09:52;16.50;14.40
2623;DHT22;1321;48.690;9.022;2023-06-14T03:12:20;16.50;14.50
2623;DHT22;1321;48.690;9.022;2023-06-14T03:14:48;16.50;13.90
2623;DHT22;1321;48.690;9.022;2023-06-14T03:17:17;16.50;14.20
2623;DHT22;1321;48.690;9.022;2023-06-14T03:19:47;16.50;14.20
2623;DHT22;1321;48.690;9.022;2023-06-14T03:22:15;16.40;13.30
2623;DHT22;1321;48.690;9.022;2023-06-14T03:24:44;16.40;13.90
2623;DHT22;1321;48.690;9.022;2023-06-14T03:27:12;16.40;14.30
2623;DHT22;1321;48.690;9.022;2023-06-14T03:29:41;16.30;14.00
2623;DHT22;1321;48.690;9.022;2023-06-14T03:32:09;16.20;13.80
2623;DHT22;1321;48.690;9.022;2023-06-14T03:34:37;16.30;14.70
2623;DHT22;1321;48.690;9.022;2023-06-14T03:37:07;16.30;15.50
2623;DHT22;1321;48.690;9.022;2023-06-14T03:39:36;16.30;16.60
2623;DHT22;1321;48.690;9.022;2023-06-14T03:42:05;16.30;16.60
2623;DHT22;1321;48.690;9.022;2023-06-14T03:44:33;16.30;16.50
2623;DHT22;1321;48.690;9.022;2023-06-14T03:47:02;16.30;17.50
2623;DHT22;1321;48.690;9.022;2023-06-14T03:49:30;16.20;16.70
2623;DHT22;1321;48.690;9.022;2023-06-14T03:51:58;16.20;17.60
2623;DHT22;1321;48.690;9.022;2023-06-14T03:54:28;16.20;18.80
2623;DHT22;1321;48.690;9.022;2023-06-14T03:57:16;16.20;19.40
2623;DHT22;1321;48.690;9.022;2023-06-14T03:59:44;16.20;19.80
2623;DHT22;1321;48.690;9.022;2023-06-14T04:02:13;16.20;19.60
2623;DHT22;1321;48.690;9.022;2023-06-14T04:04:42;16.20;19.80
2623;DHT22;1321;48.690;9.022;2023-06-14T04:07:12;16.20;21.00
2623;DHT22;1321;48.690;9.022;2023-06-14T04:09:42;16.20;21.80
2623;DHT22;1321;48.690;9.022;2023-06-14T04:12:10;16.10;22.50
2623;DHT22;1321;48.690;9.022;2023-06-14T04:14:39;16.20;22.80
2623;DHT22;1321;48.690;9.022;2023-06-14T04:17:07;16.30;23.50
2623;DHT22;1321;48.690;9.022;2023-06-14T04:19:35;16.30;24.10
2623;DHT22;1321;48.690;9.022;2023-06-14T04:22:04;16.40;25.40
2623;DHT22;1321;48.690;9.022;2023-06-14T04:24:32;16.40;25.50
2623;DHT22;1321;48.690;9.022;2023-06-14T04:27:03;16.40;25.60
2623;DHT22;1321;48.690;9.022;2023-06-14T04:29:33;16.30;24.90
2623;DHT22;1321;48.690;9.022;2023-06-14T04:32:02;16.30;25.70
2623;DHT22;1321;48.690;9.022;2023-06-14T04:34:32;16.30;26.40
2623;DHT22;1321;48.690;9.022;2023-06-14T04:37:01;16.30;25.60
2623;DHT22;1321;48.690;9.022;2023-06-14T04:39:29;16.40;26.10
2623;DHT22;1321;48.690;9.022;2023-06-14T04:41:57;16.40;26.60
2623;DHT22;1321;48.690;9.022;2023-06-14T04:44:28;16.50;27.10
2623;DHT22;1321;48.690;9.022;2023-06-14T04:46:58;16.50;26.30
2623;DHT22;1321;48.690;9.022;2023-06-14T04:49:27;16.50;27.20
2623;DHT22;1321;48.690;9.022;2023-06-14T04:51:59;16.50;27.20
2623;DHT22;1321;48.690;9.022;2023-06-14T04:54:28;16.60;27.20
2623;DHT22;1321;48.690;9.022;2023-06-14T04:56:58;16.50;26.20
2623;DHT22;1321;48.690;9.022;2023-06-14T04:59:27;16.50;25.80
2623;DHT22;1321;48.690;9.022;2023-06-14T05:02:00;16.60;26.00
2623;DHT22;1321;48.690;9.022;2023-06-14T05:04:28;16.50;26.10
2623;DHT22;1321;48.690;9.022;2023-06-14T05:06:56;16.50;25.90
2623;DHT22;1321;48.690;9.022;2023-06-14T05:09:24;16.60;25.90
2623;DHT22;1321;48.690;9.022;2023-06-14T05:11:52;16.60;25.00
2623;DHT22;1321;48.690;9.022;2023-06-14T05:14:20;16.60;26.00
2623;DHT22;1321;48.690;9.022;2023-06-14T05:16:50;16.70;27.00
2623;DHT22;1321;48.690;9.022;2023-06-14T05:19:21;16.80;29.00
2623;DHT22;1321;48.690;9.022;2023-06-14T05:27:12;16.90;43.50
2623;DHT22;1321;48.690;9.022;2023-06-14T05:33:56;17.00;28.70
2623;DHT22;1321;48.690;9.022;2023-06-14T05:36:24;17.10;29.70
2623;DHT22;1321;48.690;9.022;2023-06-14T05:41:42;17.20;30.70
2623;DHT22;1321;48.690;9.022;2023-06-14T05:44:13;17.30;31.50
2623;DHT22;1321;48.690;9.022;2023-06-14T05:53:45;17.50;35.20
2623;DHT22;1321;48.690;9.022;2023-06-14T05:56:13;17.70;36.40
2623;DHT22;1321;48.690;9.022;2023-06-14T05:58:44;17.80;36.20
2623;DHT22;1321;48.690;9.022;2023-06-14T06:01:29;17.90;36.10
2623;DHT22;1321;48.690;9.022;2023-06-14T06:04:24;17.90;36.70
2623;DHT22;1321;48.690;9.022;2023-06-14T06:06:53;18.00;37.40
2623;DHT22;1321;48.690;9.022;2023-06-14T06:13:49;18.10;37.30
2623;DHT22;1321;48.690;9.022;2023-06-14T06:16:41;18.30;38.30
2623;DHT22;1321;48.690;9.022;2023-06-14T06:19:39;18.20;37.50
2623;DHT22;1321;48.690;9.022;2023-06-14T06:22:07;18.30;38.90
2623;DHT22;1321;48.690;9.022;2023-06-14T06:28:03;18.40;36.70
2623;DHT22;1321;48.690;9.022;2023-06-14T06:30:33;18.50;37.40
2623;DHT22;1321;48.690;9.022;2023-06-14T06:33:20;18.40;36.30
2623;DHT22;1321;48.690;9.022;2023-06-14T06:36:34;18.40;35.20
2623;DHT22;1321;48.690;9.022;2023-06-14T06:39:13;18.50;37.10
2623;DHT22;1321;48.690;9.022;2023-06-14T06:41:44;18.60;38.80
2623;DHT22;1321;48.690;9.022;2023-06-14T06:44:46;18.70;39.50
2623;DHT22;1321;48.690;9.022;2023-06-14T06:51:23;18.80;38.80
2623;DHT22;1321;48.690;9.022;2023-06-14T06:54:31;18.90;38.30
2623;DHT22;1321;48.690;9.022;2023-06-14T07:05:10;19.20;41.00
2623;DHT22;1321;48.690;9.022;2023-06-14T07:19:58;19.60;45.00
2623;DHT22;1321;48.690;9.022;2023-06-14T07:22:27;19.60;43.50
2623;DHT22;1321;48.690;9.022;2023-06-14T07:24:55;19.60;44.60
2623;DHT22;1321;48.690;9.022;2023-06-14T07:27:23;19.70;40.90
2623;DHT22;1321;48.690;9.022;2023-06-14T07:29:52;19.80;41.10
2623;DHT22;1321;48.690;9.022;2023-06-14T07:32:21;19.90;39.60
2623;DHT22;1321;48.690;9.022;2023-06-14T07:34:49;19.90;40.60
2623;DHT22;1321;48.690;9.022;2023-06-14T07:37:17;20.00;43.10
2623;DHT22;1321;48.690;9.022;2023-06-14T07:39:46;20.00;44.70
2623;DHT22;1321;48.690;9.022;2023-06-14T07:42:14;20.10;46.60
2623;DHT22;1321;48.690;9.022;2023-06-14T07:44:42;20.20;46.00
2623;DHT22;1321;48.690;9.022;2023-06-14T07:47:10;20.20;46.70
2623;DHT22;1321;48.690;9.022;2023-06-14T07:49:39;20.30;45.50
2623;DHT22;1321;48.690;9.022;2023-06-14T07:52:08;20.30;46.70
2623;DHT22;1321;48.690;9.022;2023-06-14T07:54:37;20.30;48.30
2623;DHT22;1321;48.690;9.022;2023-06-14T07:57:05;20.40;48.30
2623;DHT22;1321;48.690;9.022;2023-06-14T07:59:33;20.50;49.70
2623;DHT22;1321;48.690;9.022;2023-06-14T08:02:02;20.50;49.40
2623;DHT22;1321;48.690;9.022;2023-06-14T08:04:31;20.60;51.00
2623;DHT22;1321;48.690;9.022;2023-06-14T08:07:01;20.70;53.30
2623;DHT22;1321;48.690;9.022;2023-06-14T08:09:31;20.80;53.90
2623;DHT22;1321;48.690;9.022;2023-06-14T08:11:59;20.80;53.80
2623;DHT22;1321;48.690;9.022;2023-06-14T08:14:27;20.80;55.30
2623;DHT22;1321;48.690;9.022;2023-06-14T08:16:55;20.80;54.70
2623;DHT22;1321;48.690;9.022;2023-06-14T08:19:24;20.90;55.10
2623;DHT22;1321;48.690;9.022;2023-06-14T08:21:52;20.90;55.50
2623;DHT22;1321;48.690;9.022;2023-06-14T08:24:22;21.00;55.10
2623;DHT22;1321;48.690;9.022;2023-06-14T08:26:52;21.00;55.70
2623;DHT22;1321;48.690;9.022;2023-06-14T08:29:20;21.00;58.50
2623;DHT22;1321;48.690;9.022;2023-06-14T08:31:48;21.10;57.60
2623;DHT22;1321;48.690;9.022;2023-06-14T08:34:16;21.10;58.30
2623;DHT22;1321;48.690;9.022;2023-06-14T08:36:44;21.20;57.50
2623;DHT22;1321;48.690;9.022;2023-06-14T08:39:12;21.30;59.10
2623;DHT22;1321;48.690;9.022;2023-06-14T08:41:43;21.30;60.10
2623;DHT22;1321;48.690;9.022;2023-06-14T08:44:13;21.40;61.50
2623;DHT22;1321;48.690;9.022;2023-06-14T08:46:42;21.50;62.30
2623;DHT22;1321;48.690;9.022;2023-06-14T08:49:12;21.40;58.30
2623;DHT22;1321;48.690;9.022;2023-06-14T08:51:41;21.50;59.80
2623;DHT22;1321;48.690;9.022;2023-06-14T08:54:11;21.60;61.60
2623;DHT22;1321;48.690;9.022;2023-06-14T08:56:41;21.60;62.00
2623;DHT22;1321;48.690;9.022;2023-06-14T08:59:11;21.60;59.40
2623;DHT22;1321;48.690;9.022;2023-06-14T09:01:40;21.70;61.10
2623;DHT22;1321;48.690;9.022;2023-06-14T09:04:21;21.70;62.30
2623;DHT22;1321;48.690;9.022;2023-06-14T09:06:50;21.80;61.40
2623;DHT22;1321;48.690;9.022;2023-06-14T09:09:20;21.80;61.90
2623;DHT22;1321;48.690;9.022;2023-06-14T09:11:51;21.90;61.90
2623;DHT22;1321;48.690;9.022;2023-06-14T09:14:23;21.90;61.10
2623;DHT22;1321;48.690;9.022;2023-06-14T09:16:52;21.90;62.40
2623;DHT22;1321;48.690;9.022;2023-06-14T09:19:21;21.90;63.50
2623;DHT22;1321;48.690;9.022;2023-06-14T09:21:51;22.00;63.70
2623;DHT22;1321;48.690;9.022;2023-06-14T09:24:19;22.10;64.90
2623;DHT22;1321;48.690;9.022;2023-06-14T09:26:48;22.10;66.90
2623;DHT22;1321;48.690;9.022;2023-06-14T09:29:19;22.10;69.10
2623;DHT22;1321;48.690;9.022;2023-06-14T09:31:48;22.20;69.30
2623;DHT22;1321;48.690;9.022;2023-06-14T09:34:16;22.20;69.60
2623;DHT22;1321;48.690;9.022;2023-06-14T09:36:44;22.30;70.20
2623;DHT22;1321;48.690;9.022;2023-06-14T09:39:18;22.30;70.20
2623;DHT22;1321;48.690;9.022;2023-06-14T09:41:47;22.30;88.50
2623;DHT22;1321;48.690;9.022;2023-06-14T09:44:15;22.30;67.30
2623;DHT22;1321;48.690;9.022;2023-06-14T09:46:50;22.30;68.70
2623;DHT22;1321;48.690;9.022;2023-06-14T09:49:18;22.40;69.00
2623;DHT22;1321;48.690;9.022;2023-06-14T09:51:50;22.40;71.00
2623;DHT22;1321;48.690;9.022;2023-06-14T09:54:22;22.50;73.10
2623;DHT22;1321;48.690;9.022;2023-06-14T09:56:51;22.50;66.50
2623;DHT22;1321;48.690;9.022;2023-06-14T09:59:21;22.60;66.50
2623;DHT22;1321;48.690;9.022;2023-06-14T10:01:58;22.70;68.40
2623;DHT22;1321;48.690;9.022;2023-06-14T10:04:30;22.70;66.30
2623;DHT22;1321;48.690;9.022;2023-06-14T10:07:00;22.70;66.70
2623;DHT22;1321;48.690;9.022;2023-06-14T10:09:30;22.80;69.00
2623;DHT22;1321;48.690;9.022;2023-06-14T10:11:59;22.80;70.90
2623;DHT22;1321;48.690;9.022;2023-06-14T10:14:27;22.90;69.30
2623;DHT22;1321;48.690;9.022;2023-06-14T10:17:03;22.90;69.90
2623;DHT22;1321;48.690;9.022;2023-06-14T10:19:44;22.90;85.60
2623;DHT22;1321;48.690;9.022;2023-06-14T10:22:18;23.00;67.10
2623;DHT22;1321;48.690;9.022;2023-06-14T10:24:49;23.00;67.10
2623;DHT22;1321;48.690;9.022;2023-06-14T10:27:18;22.90;67.70
2623;DHT22;1321;48.690;9.022;2023-06-14T10:30:03;23.10;70.60
2623;DHT22;1321;48.690;9.022;2023-06-14T10:32:33;23.20;74.10
2623;DHT22;1321;48.690;9.022;2023-06-14T10:35:05;23.10;74.40
2623;DHT22;1321;48.690;9.022;2023-06-14T10:37:33;23.00;71.20
2623;DHT22;1321;48.690;9.022;2023-06-14T10:40:02;23.00;69.60
2623;DHT22;1321;48.690;9.022;2023-06-14T10:42:32;23.00;70.40
2623;DHT22;1321;48.690;9.022;2023-06-14T10:45:01;23.10;69.90
2623;DHT22;1321;48.690;9.022;2023-06-14T10:47:30;23.20;69.50
2623;DHT22;1321;48.690;9.022;2023-06-14T10:50:05;23.20;73.10
2623;DHT22;1321;48.690;9.022;2023-06-14T10:52:37;23.30;70.50
2623;DHT22;1321;48.690;9.022;2023-06-14T10:55:08;23.30;70.50
2623;DHT22;1321;48.690;9.022;2023-06-14T10:57:43;23.20;71.70
2623;DHT22;1321;48.690;9.022;2023-06-14T11:00:18;23.20;71.10
2623;DHT22;1321;48.690;9.022;2023-06-14T11:05:57;23.30;74.50
2623;DHT22;1321;48.690;9.022;2023-06-14T11:11:32;23.50;72.00
2623;DHT22;1321;48.690;9.022;2023-06-14T11:14:02;23.60;75.60
2623;DHT22;1321;48.690;9.022;2023-06-14T11:16:34;23.70;74.30
2623;DHT22;1321;48.690;9.022;2023-06-14T11:19:07;23.80;74.70
2623;DHT22;1321;48.690;9.022;2023-06-14T11:21:42;23.80;73.80
2623;DHT22;1321;48.690;9.022;2023-06-14T11:24:15;23.80;74.20
2623;DHT22;1321;48.690;9.022;2023-06-14T11:26:43;23.70;68.60
2623;DHT22;1321;48.690;9.022;2023-06-14T11:29:11;23.70;70.90
2623;DHT22;1321;48.690;9.022;2023-06-14T11:31:43;23.70;72.30
2623;DHT22;1321;48.690;9.022;2023-06-14T11:34:12;23.70;71.70
2623;DHT22;1321;48.690;9.022;2023-06-14T11:36:41;23.70;70.60
2623;DHT22;1321;48.690;9.022;2023-06-14T11:39:10;23.60;72.10
2623;DHT22;1321;48.690;9.022;2023-06-14T11:41:39;23.70;72.70
2623;DHT22;1321;48.690;9.022;2023-06-14T11:44:11;23.70;73.50
2623;DHT22;1321;48.690;9.022;2023-06-14T11:46:39;23.70;72.80
2623;DHT22;1321;48.690;9.022;2023-06-14T11:49:08;23.70;72.90
2623;DHT22;1321;48.690;9.022;2023-06-14T11:51:36;23.70;72.30
2623;DHT22;1321;48.690;9.022;2023-06-14T11:54:07;23.60;71.90
2623;DHT22;1321;48.690;9.022;2023-06-14T11:56:44;23.70;74.00
2623;DHT22;1321;48.690;9.022;2023-06-14T11:59:13;23.70;73.40
2623;DHT22;1321;48.690;9.022;2023-06-14T12:01:43;23.70;73.40
2623;DHT22;1321;48.690;9.022;2023-06-14T12:04:27;23.70;73.70
2623;DHT22;1321;48.690;9.022;2023-06-14T12:07:08;23.60;71.30
2623;DHT22;1321;48.690;9.022;2023-06-14T12:09:42;23.60;69.20
2623;DHT22;1321;48.690;9.022;2023-06-14T12:12:24;23.60;71.30
2623;DHT22;1321;48.690;9.022;2023-06-14T12:14:54;23.60;71.90
2623;DHT22;1321;48.690;9.022;2023-06-14T12:17:32;23.70;74.10
2623;DHT22;1321;48.690;9.022;2023-06-14T12:20:06;23.80;73.90
2623;DHT22;1321;48.690;9.022;2023-06-14T12:22:52;23.80;76.40
2623;DHT22;1321;48.690;9.022;2023-06-14T12:25:26;24.00;77.40
2623;DHT22;1321;48.690;9.022;2023-06-14T12:27:55;23.90;74.30
2623;DHT22;1321;48.690;9.022;2023-06-14T12:30:30;24.00;77.10
2623;DHT22;1321;48.690;9.022;2023-06-14T12:32:58;24.00;77.80
2623;DHT22;1321;48.690;9.022;2023-06-14T12:35:27;24.10;77.50
2623;DHT22;1321;48.690;9.022;2023-06-14T12:38:00;24.10;79.00
2623;DHT22;1321;48.690;9.022;2023-06-14T12:40:55;24.00;79.70
2623;DHT22;1321;48.690;9.022;2023-06-14T12:43:27;24.00;77.60
2623;DHT22;1321;48.690;9.022;2023-06-14T12:45:59;24.00;78.50
2623;DHT22;1321;48.690;9.022;2023-06-14T12:48:27;24.00;77.00
2623;DHT22;1321;48.690;9.022;2023-06-14T12:51:11;24.00;78.00
2623;DHT22;1321;48.690;9.022;2023-06-14T12:53:39;24.10;78.20
2623;DHT22;1321;48.690;9.022;2023-06-14T12:56:15;24.00;77.10
2623;DHT22;1321;48.690;9.022;2023-06-14T12:58:47;24.10;76.20
2623;DHT22;1321;48.690;9.022;2023-06-14T13:01:16;24.10;76.70
2623;DHT22;1321;48.690;9.022;2023-06-14T13:03:46;24.10;79.20
2623;DHT22;1321;48.690;9.022;2023-06-14T13:06:21;24.20;76.20
2623;DHT22;1321;48.690;9.022;2023-06-14T13:11:37;24.20;92.80
2623;DHT22;1321;48.690;9.022;2023-06-14T13:14:05;24.20;76.50
2623;DHT22;1321;48.690;9.022;2023-06-14T13:16:51;24.30;77.30
2623;DHT22;1321;48.690;9.022;2023-06-14T13:19:20;24.30;78.40
2623;DHT22;1321;48.690;9.022;2023-06-14T13:22:24;24.30;74.80
2623;DHT22;1321;48.690;9.022;2023-06-14T13:25:18;24.30;77.70
2623;DHT22;1321;48.690;9.022;2023-06-14T13:27:51;24.40;77.80
2623;DHT22;1321;48.690;9.022;2023-06-14T13:30:44;24.30;77.60
2623;DHT22;1321;48.690;9.022;2023-06-14T13:33:13;24.40;78.40
2623;DHT22;1321;48.690;9.022;2023-06-14T13:39:34;24.30;75.70
2623;DHT22;1321;48.690;9.022;2023-06-14T13:42:13;24.40;77.30
2623;DHT22;1321;48.690;9.022;2023-06-14T13:44:43;24.40;77.50
2623;DHT22;1321;48.690;9.022;2023-06-14T13:47:11;24.30;75.50
2623;DHT22;1321;48.690;9.022;2023-06-14T13:51:29;24.30;75.30
2623;DHT22;1321;48.690;9.022;2023-06-14T13:56:41;24.20;68.90
2623;DHT22;1321;48.690;9.022;2023-06-14T13:59:33;24.20;69.70
2623;DHT22;1321;48.690;9.022;2023-06-14T14:02:22;24.20;73.00
2623;DHT22;1321;48.690;9.022;2023-06-14T14:08:53;24.40;76.20
2623;DHT22;1321;48.690;9.022;2023-06-14T14:11:37;24.40;77.50
2623;DHT22;1321;48.690;9.022;2023-06-14T14:14:06;24.40;80.30
2623;DHT22;1321;48.690;9.022;2023-06-14T14:16:35;24.30;74.30
2623;DHT22;1321;48.690;9.022;2023-06-14T14:19:05;24.40;77.00
2623;DHT22;1321;48.690;9.022;2023-06-14T14:21:34;24.40;74.50
2623;DHT22;1321;48.690;9.022;2023-06-14T14:24:03;24.40;74.70
2623;DHT22;1321;48.690;9.022;2023-06-14T14:26:31;24.30;72.70
2623;DHT22;1321;48.690;9.022;2023-06-14T14:29:00;24.30;73.20
2623;DHT22;1321;48.690;9.022;2023-06-14T14:31:29;24.40;74.30
2623;DHT22;1321;48.690;9.022;2023-06-14T14:33:57;24.40;74.30
2623;DHT22;1321;48.690;9.022;2023-06-14T14:36:30;24.40;74.50
2623;DHT22;1321;48.690;9.022;2023-06-14T14:38:58;24.40;75.80
2623;DHT22;1321;48.690;9.022;2023-06-14T14:41:27;24.50;76.50
2623;DHT22;1321;48.690;9.022;2023-06-14T14:43:55;24.50;78.40
2623;DHT22;1321;48.690;9.022;2023-06-14T14:46:24;24.50;79.00
2623;DHT22;1321;48.690;9.022;2023-06-14T14:48:52;24.50;80.70
2623;DHT22;1321;48.690;9.022;2023-06-14T14:51:20;24.50;78.30
2623;DHT22;1321;48.690;9.022;2023-06-14T14:53:50;24.50;76.10
2623;DHT22;1321;48.690;9.022;2023-06-14T14:56:22;24.50;77.70
2623;DHT22;1321;48.690;9.022;2023-06-14T14:58:50;24.50;75.60
2623;DHT22;1321;48.690;9.022;2023-06-14T15:01:18;24.50;73.60
2623;DHT22;1321;48.690;9.022;2023-06-14T15:03:47;24.50;72.50
2623;DHT22;1321;48.690;9.022;2023-06-14T15:06:25;24.50;72.20
2623;DHT22;1321;48.690;9.022;2023-06-14T15:08:55;24.50;75.90
2623;DHT22;1321;48.690;9.022;2023-06-14T15:11:24;24.50;74.40
2623;DHT22;1321;48.690;9.022;2023-06-14T15:13:52;24.50;74.00
2623;DHT22;1321;48.690;9.022;2023-06-14T15:19:40;24.50;74.70
2623;DHT22;1321;48.690;9.022;2023-06-14T15:22:59;24.50;74.60
2623;DHT22;1321;48.690;9.022;2023-06-14T15:25:30;24.50;75.90
2623;DHT22;1321;48.690;9.022;2023-06-14T15:32:01;24.40;74.70
2623;DHT22;1321;48.690;9.022;2023-06-14T15:34:29;24.40;74.60
2623;DHT22;1321;48.690;9.022;2023-06-14T15:39:54;24.40;73.90
2623;DHT22;1321;48.690;9.022;2023-06-14T15:42:23;24.40;77.50
2623;DHT22;1321;48.690;9.022;2023-06-14T15:44:52;24.40;75.90
2623;DHT22;1321;48.690;9.022;2023-06-14T15:52:17;24.50;75.60
2623;DHT22;1321;48.690;9.022;2023-06-14T15:54:27;24.50;77.40
2623;DHT22;1321;48.690;9.022;2023-06-14T15:57:18;24.50;76.80
2623;DHT22;1321;48.690;9.022;2023-06-14T15:59:48;24.50;75.90
2623;DHT22;1321;48.690;9.022;2023-06-14T16:02:16;24.50;75.60
2623;DHT22;1321;48.690;9.022;2023-06-14T16:04:45;24.40;75.80
2623;DHT22;1321;48.690;9.022;2023-06-14T16:07:14;24.40;83.50
2623;DHT22;1321;48.690;9.022;2023-06-14T16:09:42;24.40;75.90
2623;DHT22;1321;48.690;9.022;2023-06-14T16:12:10;24.40;75.50
2623;DHT22;1321;48.690;9.022;2023-06-14T16:14:39;24.40;73.00
2623;DHT22;1321;48.690;9.022;2023-06-14T16:17:09;24.30;71.00
2623;DHT22;1321;48.690;9.022;2023-06-14T16:19:38;24.30;72.10
2623;DHT22;1321;48.690;9.022;2023-06-14T16:22:06;24.40;71.70
2623;DHT22;1321;48.690;9.022;2023-06-14T16:24:42;24.30;68.90
2623;DHT22;1321;48.690;9.022;2023-06-14T16:27:57;24.30;71.00
2623;DHT22;1321;48.690;9.022;2023-06-14T16:30:46;24.30;72.50
2623;DHT22;1321;48.690;9.022;2023-06-14T16:33:41;24.30;69.40
2623;DHT22;1321;48.690;9.022;2023-06-14T16:40:00;24.30;71.10
2623;DHT22;1321;48.690;9.022;2023-06-14T16:43:30;24.20;71.80
2623;DHT22;1321;48.690;9.022;2023-06-14T16:46:46;24.20;67.90
2623;DHT22;1321;48.690;9.022;2023-06-14T16:49:17;24.20;68.80
2623;DHT22;1321;48.690;9.022;2023-06-14T16:55:52;24.20;67.80
2623;DHT22;1321;48.690;9.022;2023-06-14T16:58:20;24.20;69.80
2623;DHT22;1321;48.690;9.022;2023-06-14T17:00:58;24.20;69.60
2623;DHT22;1321;48.690;9.022;2023-06-14T17:03:27;24.20;69.10
2623;DHT22;1321;48.690;9.022;2023-06-14T17:10:18;24.20;69.10
2623;DHT22;1321;48.690;9.022;2023-06-14T17:12:53;24.10;67.80
2623;DHT22;1321;48.690;9.022;2023-06-14T17:15:28;24.10;68.10
2623;DHT22;1321;48.690;9.022;2023-06-14T17:17:56;24.00;67.80
2623;DHT22;1321;48.690;9.022;2023-06-14T17:20:59;24.00;69.60
2623;DHT22;1321;48.690;9.022;2023-06-14T17:23:50;24.00;67.20
2623;DHT22;1321;48.690;9.022;2023-06-14T17:26:29;23.90;66.70
2623;DHT22;1321;48.690;9.022;2023-06-14T17:32:40;23.90;66.40
2623;DHT22;1321;48.690;9.022;2023-06-14T17:39:07;23.80;66.10
2623;DHT22;1321;48.690;9.022;2023-06-14T17:41:53;23.80;65.30
2623;DHT22;1321;48.690;9.022;2023-06-14T17:44:30;23.80;64.40
2623;DHT22;1321;48.690;9.022;2023-06-14T17:47:25;23.70;63.90
2623;DHT22;1321;48.690;9.022;2023-06-14T18:02:30;23.50;61.30
2623;DHT22;1321;48.690;9.022;2023-06-14T18:04:59;23.60;64.00
2623;DHT22;1321;48.690;9.022;2023-06-14T18:08:16;23.60;63.30
2623;DHT22;1321;48.690;9.022;2023-06-14T18:11:05;23.50;62.80
2623;DHT22;1321;48.690;9.022;2023-06-14T18:13:44;23.40;62.40
2623;DHT22;1321;48.690;9.022;2023-06-14T18:16:13;23.40;61.90
2623;DHT22;1321;48.690;9.022;2023-06-14T18:23:00;23.30;60.50
2623;DHT22;1321;48.690;9.022;2023-06-14T18:25:42;23.20;69.10
2623;DHT22;1321;48.690;9.022;2023-06-14T18:28:13;23.20;60.40
2623;DHT22;1321;48.690;9.022;2023-06-14T18:31:28;23.20;59.60
2623;DHT22;1321;48.690;9.022;2023-06-14T18:34:24;23.10;59.50
2623;DHT22;1321;48.690;9.022;2023-06-14T18:40:26;23.10;58.00
2623;DHT22;1321;48.690;9.022;2023-06-14T18:42:54;23.10;58.30
2623;DHT22;1321;48.690;9.022;2023-06-14T18:50:23;22.90;58.80